sensor_id;sensor_type;location;lat;lon;timestamp;P1;durP1;ratioP1;P2;durP2;ratioP2
24547;SDS011;12713;51.624;4.924;2022-08-30T00:01:05;9.27;;;4.38;;
24547;SDS011;12713;51.624;4.924;2022-08-30T00:03:32;12.18;;;5.00;;
24547;SDS011;12713;51.624;4.924;2022-08-30T00:05:59;10.57;;;5.07;;
24547;SDS011;12713;51.624;4.924;2022-08-30T00:08:25;8.77;;;5.38;;
24547;SDS011;12713;51.624;4.924;2022-08-30T00:10:51;12.20;;;5.30;;
24547;SDS011;12713;51.624;4.924;2022-08-30T00:13:17;12.43;;;5.43;;
24547;SDS011;12713;51.624;4.924;2022-08-30T00:15:44;8.57;;;4.05;;
24547;SDS011;12713;51.624;4.924;2022-08-30T00:18:11;8.85;;;4.93;;
24547;SDS011;12713;51.624;4.924;2022-08-30T00:20:37;6.97;;;4.57;;
24547;SDS011;12713;51.624;4.924;2022-08-30T00:23:04;7.43;;;4.80;;
24547;SDS011;12713;51.624;4.924;2022-08-30T00:25:30;7.25;;;4.60;;
24547;SDS011;12713;51.624;4.924;2022-08-30T00:27:56;10.18;;;4.28;;
24547;SDS011;12713;51.624;4.924;2022-08-30T00:30:22;6.28;;;4.60;;
24547;SDS011;12713;51.624;4.924;2022-08-30T00:32:48;8.20;;;4.47;;
24547;SDS011;12713;51.624;4.924;2022-08-30T00:35:15;4.85;;;4.07;;
24547;SDS011;12713;51.624;4.924;2022-08-30T00:37:43;8.30;;;5.00;;
24547;SDS011;12713;51.624;4.924;2022-08-30T00:40:09;8.35;;;5.38;;
24547;SDS011;12713;51.624;4.924;2022-08-30T00:42:36;9.30;;;5.07;;
24547;SDS011;12713;51.624;4.924;2022-08-30T00:45:10;7.03;;;4.93;;
24547;SDS011;12713;51.624;4.924;2022-08-30T00:47:37;9.50;;;4.80;;
24547;SDS011;12713;51.624;4.924;2022-08-30T00:50:03;8.93;;;5.15;;
24547;SDS011;12713;51.624;4.924;2022-08-30T00:52:32;10.25;;;5.15;;
24547;SDS011;12713;51.624;4.924;2022-08-30T00:54:59;9.65;;;4.38;;
24547;SDS011;12713;51.624;4.924;2022-08-30T00:57:26;9.57;;;4.53;;
24547;SDS011;12713;51.624;4.924;2022-08-30T00:59:52;10.10;;;5.75;;
24547;SDS011;12713;51.624;4.924;2022-08-30T01:02:19;8.35;;;4.18;;
24547;SDS011;12713;51.624;4.924;2022-08-30T01:04:46;9.20;;;6.13;;
24547;SDS011;12713;51.624;4.924;2022-08-30T01:07:12;6.90;;;3.95;;
24547;SDS011;12713;51.624;4.924;2022-08-30T01:09:40;7.40;;;4.43;;
24547;SDS011;12713;51.624;4.924;2022-08-30T01:12:06;6.93;;;4.50;;
24547;SDS011;12713;51.624;4.924;2022-08-30T01:14:33;11.38;;;4.88;;
24547;SDS011;12713;51.624;4.924;2022-08-30T01:16:59;8.68;;;4.90;;
24547;SDS011;12713;51.624;4.924;2022-08-30T01:21:53;8.77;;;5.40;;
24547;SDS011;12713;51.624;4.924;2022-08-30T01:24:21;7.97;;;4.00;;
24547;SDS011;12713;51.624;4.924;2022-08-30T01:26:48;12.27;;;5.35;;
24547;SDS011;12713;51.624;4.924;2022-08-30T01:29:15;5.80;;;4.72;;
24547;SDS011;12713;51.624;4.924;2022-08-30T01:31:42;7.03;;;4.15;;
24547;SDS011;12713;51.624;4.924;2022-08-30T01:34:08;11.93;;;5.10;;
24547;SDS011;12713;51.624;4.924;2022-08-30T01:36:35;8.27;;;4.80;;
24547;SDS011;12713;51.624;4.924;2022-08-30T01:39:02;8.10;;;4.57;;
24547;SDS011;12713;51.624;4.924;2022-08-30T01:41:30;7.70;;;5.45;;
24547;SDS011;12713;51.624;4.924;2022-08-30T01:43:57;6.80;;;4.28;;
24547;SDS011;12713;51.624;4.924;2022-08-30T01:46:25;7.35;;;4.97;;
24547;SDS011;12713;51.624;4.924;2022-08-30T01:48:52;8.40;;;4.90;;
24547;SDS011;12713;51.624;4.924;2022-08-30T01:51:19;6.20;;;4.57;;
24547;SDS011;12713;51.624;4.924;2022-08-30T01:53:46;8.27;;;4.38;;
24547;SDS011;12713;51.624;4.924;2022-08-30T01:56:12;6.72;;;4.32;;
24547;SDS011;12713;51.624;4.924;2022-08-30T01:58:39;8.60;;;5.88;;
24547;SDS011;12713;51.624;4.924;2022-08-30T02:01:07;7.18;;;5.13;;
24547;SDS011;12713;51.624;4.924;2022-08-30T02:03:34;9.43;;;5.75;;
24547;SDS011;12713;51.624;4.924;2022-08-30T02:06:03;5.45;;;4.35;;
24547;SDS011;12713;51.624;4.924;2022-08-30T02:08:30;7.78;;;4.88;;
24547;SDS011;12713;51.624;4.924;2022-08-30T02:10:56;9.52;;;5.15;;
24547;SDS011;12713;51.624;4.924;2022-08-30T02:13:23;7.20;;;5.13;;
24547;SDS011;12713;51.624;4.924;2022-08-30T02:15:49;9.50;;;6.10;;
24547;SDS011;12713;51.624;4.924;2022-08-30T02:18:15;7.88;;;5.22;;
24547;SDS011;12713;51.624;4.924;2022-08-30T02:20:41;6.45;;;5.22;;
24547;SDS011;12713;51.624;4.924;2022-08-30T02:23:07;7.93;;;4.57;;
24547;SDS011;12713;51.624;4.924;2022-08-30T02:25:33;9.15;;;5.70;;
24547;SDS011;12713;51.624;4.924;2022-08-30T02:27:59;7.82;;;5.88;;
24547;SDS011;12713;51.624;4.924;2022-08-30T02:30:28;9.68;;;5.35;;
24547;SDS011;12713;51.624;4.924;2022-08-30T02:32:54;8.13;;;6.20;;
24547;SDS011;12713;51.624;4.924;2022-08-30T02:35:20;7.22;;;6.10;;
24547;SDS011;12713;51.624;4.924;2022-08-30T02:37:47;12.70;;;6.85;;
24547;SDS011;12713;51.624;4.924;2022-08-30T02:40:13;7.60;;;6.10;;
24547;SDS011;12713;51.624;4.924;2022-08-30T02:42:39;6.57;;;5.25;;
24547;SDS011;12713;51.624;4.924;2022-08-30T02:45:06;11.95;;;6.45;;
24547;SDS011;12713;51.624;4.924;2022-08-30T02:47:32;9.55;;;5.97;;
24547;SDS011;12713;51.624;4.924;2022-08-30T02:49:58;8.68;;;5.78;;
24547;SDS011;12713;51.624;4.924;2022-08-30T02:52:24;8.18;;;5.72;;
24547;SDS011;12713;51.624;4.924;2022-08-30T02:54:50;6.18;;;5.38;;
24547;SDS011;12713;51.624;4.924;2022-08-30T02:57:16;8.82;;;6.03;;
24547;SDS011;12713;51.624;4.924;2022-08-30T02:59:42;6.95;;;5.50;;
24547;SDS011;12713;51.624;4.924;2022-08-30T03:02:10;9.95;;;5.05;;
24547;SDS011;12713;51.624;4.924;2022-08-30T03:04:37;6.25;;;5.63;;
24547;SDS011;12713;51.624;4.924;2022-08-30T03:07:03;8.82;;;5.20;;
24547;SDS011;12713;51.624;4.924;2022-08-30T03:09:30;12.73;;;6.78;;
24547;SDS011;12713;51.624;4.924;2022-08-30T03:11:56;10.82;;;7.18;;
24547;SDS011;12713;51.624;4.924;2022-08-30T03:14:22;10.70;;;7.53;;
24547;SDS011;12713;51.624;4.924;2022-08-30T03:16:48;7.75;;;5.53;;
24547;SDS011;12713;51.624;4.924;2022-08-30T03:19:15;17.40;;;5.95;;
24547;SDS011;12713;51.624;4.924;2022-08-30T03:21:41;8.45;;;6.43;;
24547;SDS011;12713;51.624;4.924;2022-08-30T03:24:07;7.28;;;5.55;;
24547;SDS011;12713;51.624;4.924;2022-08-30T03:26:33;10.27;;;6.97;;
24547;SDS011;12713;51.624;4.924;2022-08-30T03:28:59;9.45;;;5.80;;
24547;SDS011;12713;51.624;4.924;2022-08-30T03:31:26;10.05;;;7.47;;
24547;SDS011;12713;51.624;4.924;2022-08-30T03:33:52;11.02;;;7.82;;
24547;SDS011;12713;51.624;4.924;2022-08-30T03:36:21;10.50;;;6.85;;
24547;SDS011;12713;51.624;4.924;2022-08-30T03:38:47;13.50;;;8.65;;
24547;SDS011;12713;51.624;4.924;2022-08-30T03:41:15;11.82;;;7.82;;
24547;SDS011;12713;51.624;4.924;2022-08-30T03:43:42;8.88;;;6.82;;
24547;SDS011;12713;51.624;4.924;2022-08-30T03:46:10;11.00;;;9.00;;
24547;SDS011;12713;51.624;4.924;2022-08-30T03:48:37;8.57;;;6.35;;
24547;SDS011;12713;51.624;4.924;2022-08-30T03:51:03;13.93;;;8.45;;
24547;SDS011;12713;51.624;4.924;2022-08-30T03:53:29;9.50;;;6.80;;
24547;SDS011;12713;51.624;4.924;2022-08-30T03:55:55;13.90;;;8.30;;
24547;SDS011;12713;51.624;4.924;2022-08-30T03:58:21;10.10;;;6.15;;
24547;SDS011;12713;51.624;4.924;2022-08-30T04:00:47;8.77;;;6.78;;
24547;SDS011;12713;51.624;4.924;2022-08-30T04:03:13;10.20;;;8.07;;
24547;SDS011;12713;51.624;4.924;2022-08-30T04:05:39;7.60;;;6.57;;
24547;SDS011;12713;51.624;4.924;2022-08-30T04:08:05;8.52;;;6.65;;
24547;SDS011;12713;51.624;4.924;2022-08-30T04:10:31;8.90;;;6.82;;
24547;SDS011;12713;51.624;4.924;2022-08-30T04:12:58;12.75;;;8.93;;
24547;SDS011;12713;51.624;4.924;2022-08-30T04:15:26;9.57;;;7.78;;
24547;SDS011;12713;51.624;4.924;2022-08-30T04:17:53;9.63;;;7.10;;
24547;SDS011;12713;51.624;4.924;2022-08-30T04:20:22;8.90;;;7.65;;
24547;SDS011;12713;51.624;4.924;2022-08-30T04:22:48;8.23;;;6.90;;
24547;SDS011;12713;51.624;4.924;2022-08-30T04:25:14;9.07;;;7.03;;
24547;SDS011;12713;51.624;4.924;2022-08-30T04:27:42;12.65;;;9.35;;
24547;SDS011;12713;51.624;4.924;2022-08-30T04:30:08;9.48;;;7.57;;
24547;SDS011;12713;51.624;4.924;2022-08-30T04:32:34;11.50;;;10.25;;
24547;SDS011;12713;51.624;4.924;2022-08-30T04:35:00;9.65;;;8.25;;
24547;SDS011;12713;51.624;4.924;2022-08-30T04:37:26;13.80;;;11.15;;
24547;SDS011;12713;51.624;4.924;2022-08-30T04:39:56;12.02;;;8.80;;
24547;SDS011;12713;51.624;4.924;2022-08-30T04:42:25;11.55;;;10.30;;
24547;SDS011;12713;51.624;4.924;2022-08-30T04:44:55;10.02;;;8.20;;
24547;SDS011;12713;51.624;4.924;2022-08-30T04:47:21;13.75;;;11.63;;
24547;SDS011;12713;51.624;4.924;2022-08-30T04:49:47;13.13;;;10.20;;
24547;SDS011;12713;51.624;4.924;2022-08-30T04:52:13;10.07;;;8.38;;
24547;SDS011;12713;51.624;4.924;2022-08-30T04:54:39;9.98;;;7.07;;
24547;SDS011;12713;51.624;4.924;2022-08-30T04:57:05;9.50;;;7.28;;
24547;SDS011;12713;51.624;4.924;2022-08-30T04:59:31;9.30;;;8.25;;
24547;SDS011;12713;51.624;4.924;2022-08-30T05:01:58;10.82;;;8.32;;
24547;SDS011;12713;51.624;4.924;2022-08-30T05:04:24;9.65;;;7.90;;
24547;SDS011;12713;51.624;4.924;2022-08-30T05:06:50;11.77;;;9.05;;
24547;SDS011;12713;51.624;4.924;2022-08-30T05:09:16;12.75;;;8.52;;
24547;SDS011;12713;51.624;4.924;2022-08-30T05:11:43;9.82;;;8.05;;
24547;SDS011;12713;51.624;4.924;2022-08-30T05:14:10;9.48;;;6.95;;
24547;SDS011;12713;51.624;4.924;2022-08-30T05:16:36;14.32;;;10.70;;
24547;SDS011;12713;51.624;4.924;2022-08-30T05:19:02;12.07;;;9.45;;
24547;SDS011;12713;51.624;4.924;2022-08-30T05:21:28;17.95;;;11.52;;
24547;SDS011;12713;51.624;4.924;2022-08-30T05:23:55;10.52;;;8.73;;
24547;SDS011;12713;51.624;4.924;2022-08-30T05:26:31;14.57;;;11.40;;
24547;SDS011;12713;51.624;4.924;2022-08-30T05:28:57;9.98;;;8.50;;
24547;SDS011;12713;51.624;4.924;2022-08-30T05:31:25;11.68;;;10.38;;
24547;SDS011;12713;51.624;4.924;2022-08-30T05:33:52;9.65;;;7.45;;
24547;SDS011;12713;51.624;4.924;2022-08-30T05:36:18;13.10;;;10.77;;
24547;SDS011;12713;51.624;4.924;2022-08-30T05:38:45;9.88;;;7.75;;
24547;SDS011;12713;51.624;4.924;2022-08-30T05:41:11;12.48;;;10.45;;
24547;SDS011;12713;51.624;4.924;2022-08-30T05:43:37;12.85;;;11.55;;
24547;SDS011;12713;51.624;4.924;2022-08-30T05:46:07;13.07;;;11.05;;
24547;SDS011;12713;51.624;4.924;2022-08-30T05:48:34;13.02;;;11.27;;
24547;SDS011;12713;51.624;4.924;2022-08-30T05:51:08;10.35;;;8.32;;
24547;SDS011;12713;51.624;4.924;2022-08-30T05:53:35;11.32;;;8.55;;
24547;SDS011;12713;51.624;4.924;2022-08-30T05:56:02;12.00;;;8.60;;
24547;SDS011;12713;51.624;4.924;2022-08-30T05:58:29;9.50;;;8.15;;
24547;SDS011;12713;51.624;4.924;2022-08-30T06:00:55;12.48;;;8.82;;
24547;SDS011;12713;51.624;4.924;2022-08-30T06:03:21;15.57;;;11.73;;
24547;SDS011;12713;51.624;4.924;2022-08-30T06:05:47;15.15;;;11.73;;
24547;SDS011;12713;51.624;4.924;2022-08-30T06:08:13;17.70;;;11.05;;
24547;SDS011;12713;51.624;4.924;2022-08-30T06:10:39;15.90;;;12.15;;
24547;SDS011;12713;51.624;4.924;2022-08-30T06:13:05;13.30;;;11.45;;
24547;SDS011;12713;51.624;4.924;2022-08-30T06:15:31;10.18;;;8.48;;
24547;SDS011;12713;51.624;4.924;2022-08-30T06:17:57;12.57;;;9.75;;
24547;SDS011;12713;51.624;4.924;2022-08-30T06:20:23;14.05;;;9.40;;
24547;SDS011;12713;51.624;4.924;2022-08-30T06:22:49;11.40;;;8.63;;
24547;SDS011;12713;51.624;4.924;2022-08-30T06:25:18;12.88;;;10.70;;
24547;SDS011;12713;51.624;4.924;2022-08-30T06:27:44;11.82;;;10.18;;
24547;SDS011;12713;51.624;4.924;2022-08-30T06:30:10;12.85;;;9.10;;
24547;SDS011;12713;51.624;4.924;2022-08-30T06:32:40;12.68;;;11.30;;
24547;SDS011;12713;51.624;4.924;2022-08-30T06:35:06;11.52;;;10.05;;
24547;SDS011;12713;51.624;4.924;2022-08-30T06:37:33;14.40;;;11.73;;
24547;SDS011;12713;51.624;4.924;2022-08-30T06:39:59;14.73;;;12.43;;
24547;SDS011;12713;51.624;4.924;2022-08-30T06:42:29;14.50;;;11.18;;
24547;SDS011;12713;51.624;4.924;2022-08-30T06:44:59;12.25;;;10.75;;
24547;SDS011;12713;51.624;4.924;2022-08-30T06:47:26;16.95;;;11.50;;
24547;SDS011;12713;51.624;4.924;2022-08-30T06:49:52;11.52;;;9.35;;
24547;SDS011;12713;51.624;4.924;2022-08-30T06:52:18;11.38;;;9.77;;
24547;SDS011;12713;51.624;4.924;2022-08-30T06:54:44;12.85;;;11.25;;
24547;SDS011;12713;51.624;4.924;2022-08-30T06:57:11;16.52;;;11.70;;
24547;SDS011;12713;51.624;4.924;2022-08-30T06:59:37;19.10;;;13.60;;
24547;SDS011;12713;51.624;4.924;2022-08-30T07:02:03;13.20;;;10.13;;
24547;SDS011;12713;51.624;4.924;2022-08-30T07:04:30;13.00;;;11.70;;
24547;SDS011;12713;51.624;4.924;2022-08-30T07:06:56;10.25;;;9.25;;
24547;SDS011;12713;51.624;4.924;2022-08-30T07:09:22;8.63;;;7.70;;
24547;SDS011;12713;51.624;4.924;2022-08-30T07:11:48;9.90;;;8.45;;
24547;SDS011;12713;51.624;4.924;2022-08-30T07:14:14;11.90;;;10.70;;
24547;SDS011;12713;51.624;4.924;2022-08-30T07:16:40;10.93;;;9.70;;
24547;SDS011;12713;51.624;4.924;2022-08-30T07:19:07;7.03;;;5.22;;
24547;SDS011;12713;51.624;4.924;2022-08-30T07:21:35;9.90;;;8.90;;
24547;SDS011;12713;51.624;4.924;2022-08-30T07:24:02;11.25;;;10.15;;
24547;SDS011;12713;51.624;4.924;2022-08-30T07:26:33;10.63;;;9.52;;
24547;SDS011;12713;51.624;4.924;2022-08-30T07:29:00;10.48;;;9.00;;
24547;SDS011;12713;51.624;4.924;2022-08-30T07:31:26;12.45;;;9.10;;
24547;SDS011;12713;51.624;4.924;2022-08-30T07:33:52;12.32;;;9.38;;
24547;SDS011;12713;51.624;4.924;2022-08-30T07:36:19;15.43;;;10.00;;
24547;SDS011;12713;51.624;4.924;2022-08-30T07:38:46;12.23;;;8.48;;
24547;SDS011;12713;51.624;4.924;2022-08-30T07:41:16;13.18;;;8.60;;
24547;SDS011;12713;51.624;4.924;2022-08-30T07:43:43;11.48;;;8.07;;
24547;SDS011;12713;51.624;4.924;2022-08-30T07:46:09;11.35;;;8.65;;
24547;SDS011;12713;51.624;4.924;2022-08-30T07:48:35;11.48;;;8.73;;
24547;SDS011;12713;51.624;4.924;2022-08-30T07:51:07;12.27;;;8.48;;
24547;SDS011;12713;51.624;4.924;2022-08-30T07:53:33;10.05;;;8.50;;
24547;SDS011;12713;51.624;4.924;2022-08-30T07:56:02;10.38;;;8.23;;
24547;SDS011;12713;51.624;4.924;2022-08-30T07:58:28;10.63;;;8.57;;
24547;SDS011;12713;51.624;4.924;2022-08-30T08:00:54;11.10;;;8.15;;
24547;SDS011;12713;51.624;4.924;2022-08-30T08:03:23;13.20;;;9.27;;
24547;SDS011;12713;51.624;4.924;2022-08-30T08:05:49;16.95;;;8.35;;
24547;SDS011;12713;51.624;4.924;2022-08-30T08:08:17;10.55;;;7.97;;
24547;SDS011;12713;51.624;4.924;2022-08-30T08:10:43;11.02;;;7.40;;
24547;SDS011;12713;51.624;4.924;2022-08-30T08:13:09;10.18;;;7.53;;
24547;SDS011;12713;51.624;4.924;2022-08-30T08:15:36;8.45;;;7.50;;
24547;SDS011;12713;51.624;4.924;2022-08-30T08:18:02;9.82;;;7.28;;
24547;SDS011;12713;51.624;4.924;2022-08-30T08:20:28;8.50;;;6.70;;
24547;SDS011;12713;51.624;4.924;2022-08-30T08:22:55;8.93;;;6.28;;
24547;SDS011;12713;51.624;4.924;2022-08-30T08:25:20;11.95;;;6.70;;
24547;SDS011;12713;51.624;4.924;2022-08-30T08:27:47;7.28;;;5.78;;
24547;SDS011;12713;51.624;4.924;2022-08-30T08:30:14;7.63;;;5.95;;
24547;SDS011;12713;51.624;4.924;2022-08-30T08:32:41;9.93;;;5.63;;
24547;SDS011;12713;51.624;4.924;2022-08-30T08:35:07;9.02;;;4.85;;
24547;SDS011;12713;51.624;4.924;2022-08-30T08:37:35;9.45;;;4.78;;
24547;SDS011;12713;51.624;4.924;2022-08-30T08:40:01;12.00;;;4.95;;
24547;SDS011;12713;51.624;4.924;2022-08-30T08:50:00;7.53;;;4.30;;
24547;SDS011;12713;51.624;4.924;2022-08-30T08:52:29;8.40;;;4.57;;
24547;SDS011;12713;51.624;4.924;2022-08-30T08:57:47;6.95;;;3.40;;
24547;SDS011;12713;51.624;4.924;2022-08-30T09:00:13;4.88;;;3.70;;
24547;SDS011;12713;51.624;4.924;2022-08-30T09:02:54;5.05;;;3.28;;
24547;SDS011;12713;51.624;4.924;2022-08-30T09:05:21;8.55;;;3.55;;
24547;SDS011;12713;51.624;4.924;2022-08-30T09:07:51;8.52;;;4.05;;
24547;SDS011;12713;51.624;4.924;2022-08-30T09:10:19;5.55;;;3.38;;
24547;SDS011;12713;51.624;4.924;2022-08-30T09:12:46;6.05;;;3.40;;
24547;SDS011;12713;51.624;4.924;2022-08-30T09:15:22;9.00;;;3.45;;
24547;SDS011;12713;51.624;4.924;2022-08-30T09:17:51;3.50;;;2.75;;
24547;SDS011;12713;51.624;4.924;2022-08-30T09:25:52;5.32;;;2.97;;
24547;SDS011;12713;51.624;4.924;2022-08-30T09:33:55;6.03;;;2.85;;
24547;SDS011;12713;51.624;4.924;2022-08-30T09:36:26;8.77;;;2.70;;
24547;SDS011;12713;51.624;4.924;2022-08-30T09:38:57;5.30;;;2.90;;
24547;SDS011;12713;51.624;4.924;2022-08-30T09:41:26;3.93;;;3.10;;
24547;SDS011;12713;51.624;4.924;2022-08-30T09:44:04;3.85;;;2.97;;
24547;SDS011;12713;51.624;4.924;2022-08-30T09:46:30;4.53;;;3.03;;
24547;SDS011;12713;51.624;4.924;2022-08-30T09:48:56;5.25;;;2.38;;
24547;SDS011;12713;51.624;4.924;2022-08-30T09:51:39;5.38;;;2.80;;
24547;SDS011;12713;51.624;4.924;2022-08-30T09:54:18;5.38;;;3.13;;
24547;SDS011;12713;51.624;4.924;2022-08-30T09:56:50;5.95;;;2.50;;
24547;SDS011;12713;51.624;4.924;2022-08-30T10:01:59;5.75;;;2.47;;
24547;SDS011;12713;51.624;4.924;2022-08-30T10:04:28;4.68;;;2.13;;
24547;SDS011;12713;51.624;4.924;2022-08-30T10:07:00;5.97;;;1.98;;
24547;SDS011;12713;51.624;4.924;2022-08-30T10:14:34;9.15;;;2.28;;
24547;SDS011;12713;51.624;4.924;2022-08-30T10:22:18;4.75;;;2.60;;
24547;SDS011;12713;51.624;4.924;2022-08-30T10:24:43;3.30;;;1.92;;
24547;SDS011;12713;51.624;4.924;2022-08-30T10:27:15;3.08;;;2.10;;
24547;SDS011;12713;51.624;4.924;2022-08-30T10:29:45;10.00;;;1.80;;
24547;SDS011;12713;51.624;4.924;2022-08-30T10:34:59;6.32;;;1.90;;
24547;SDS011;12713;51.624;4.924;2022-08-30T10:37:28;3.72;;;2.20;;
24547;SDS011;12713;51.624;4.924;2022-08-30T10:39:57;5.07;;;1.98;;
24547;SDS011;12713;51.624;4.924;2022-08-30T10:42:44;6.75;;;2.63;;
24547;SDS011;12713;51.624;4.924;2022-08-30T10:45:11;4.45;;;2.17;;
24547;SDS011;12713;51.624;4.924;2022-08-30T10:50:21;3.10;;;1.70;;
24547;SDS011;12713;51.624;4.924;2022-08-30T10:55:35;7.32;;;2.28;;
24547;SDS011;12713;51.624;4.924;2022-08-30T10:58:03;6.57;;;2.20;;
24547;SDS011;12713;51.624;4.924;2022-08-30T11:00:41;5.20;;;1.70;;
24547;SDS011;12713;51.624;4.924;2022-08-30T11:11:05;4.50;;;1.85;;
24547;SDS011;12713;51.624;4.924;2022-08-30T11:13:37;3.25;;;1.75;;
24547;SDS011;12713;51.624;4.924;2022-08-30T11:18:31;5.38;;;1.95;;
24547;SDS011;12713;51.624;4.924;2022-08-30T11:21:33;4.68;;;2.20;;
24547;SDS011;12713;51.624;4.924;2022-08-30T11:29:08;4.57;;;2.03;;
24547;SDS011;12713;51.624;4.924;2022-08-30T11:31:35;4.40;;;1.92;;
24547;SDS011;12713;51.624;4.924;2022-08-30T11:34:05;3.80;;;1.73;;
24547;SDS011;12713;51.624;4.924;2022-08-30T11:39:06;5.57;;;2.13;;
24547;SDS011;12713;51.624;4.924;2022-08-30T11:46:40;4.88;;;2.00;;
24547;SDS011;12713;51.624;4.924;2022-08-30T11:54:30;5.38;;;1.70;;
24547;SDS011;12713;51.624;4.924;2022-08-30T12:04:59;4.97;;;1.88;;
24547;SDS011;12713;51.624;4.924;2022-08-30T12:10:20;4.25;;;1.50;;
24547;SDS011;12713;51.624;4.924;2022-08-30T12:12:46;4.85;;;1.75;;
24547;SDS011;12713;51.624;4.924;2022-08-30T12:15:50;3.92;;;1.80;;
24547;SDS011;12713;51.624;4.924;2022-08-30T12:18:14;3.22;;;1.65;;
24547;SDS011;12713;51.624;4.924;2022-08-30T12:21:04;4.50;;;1.77;;
24547;SDS011;12713;51.624;4.924;2022-08-30T12:24:15;4.60;;;1.83;;
24547;SDS011;12713;51.624;4.924;2022-08-30T12:31:41;9.50;;;2.28;;
24547;SDS011;12713;51.624;4.924;2022-08-30T12:34:08;3.50;;;1.73;;
24547;SDS011;12713;51.624;4.924;2022-08-30T12:36:49;6.43;;;1.80;;
24547;SDS011;12713;51.624;4.924;2022-08-30T12:41:42;3.53;;;1.40;;
24547;SDS011;12713;51.624;4.924;2022-08-30T12:44:16;4.57;;;2.10;;
24547;SDS011;12713;51.624;4.924;2022-08-30T12:46:44;4.40;;;1.77;;
24547;SDS011;12713;51.624;4.924;2022-08-30T12:49:13;2.80;;;1.70;;
24547;SDS011;12713;51.624;4.924;2022-08-30T12:51:40;6.40;;;2.38;;
24547;SDS011;12713;51.624;4.924;2022-08-30T12:54:19;4.35;;;1.77;;
24547;SDS011;12713;51.624;4.924;2022-08-30T12:56:47;3.33;;;1.70;;
24547;SDS011;12713;51.624;4.924;2022-08-30T13:02:20;9.27;;;2.28;;
24547;SDS011;12713;51.624;4.924;2022-08-30T13:04:47;3.10;;;1.65;;
24547;SDS011;12713;51.624;4.924;2022-08-30T13:07:25;1.75;;;1.25;;
24547;SDS011;12713;51.624;4.924;2022-08-30T13:09:58;4.07;;;1.90;;
24547;SDS011;12713;51.624;4.924;2022-08-30T13:12:26;3.53;;;2.00;;
24547;SDS011;12713;51.624;4.924;2022-08-30T13:14:52;2.40;;;1.45;;
24547;SDS011;12713;51.624;4.924;2022-08-30T13:17:33;4.32;;;1.75;;
24547;SDS011;12713;51.624;4.924;2022-08-30T13:22:29;5.68;;;2.10;;
24547;SDS011;12713;51.624;4.924;2022-08-30T13:24:56;5.63;;;2.05;;
24547;SDS011;12713;51.624;4.924;2022-08-30T13:27:22;3.85;;;1.55;;
24547;SDS011;12713;51.624;4.924;2022-08-30T13:29:48;4.80;;;1.73;;
24547;SDS011;12713;51.624;4.924;2022-08-30T13:32:14;3.53;;;1.75;;
24547;SDS011;12713;51.624;4.924;2022-08-30T13:34:41;1.88;;;1.45;;
24547;SDS011;12713;51.624;4.924;2022-08-30T13:37:10;7.18;;;1.70;;
24547;SDS011;12713;51.624;4.924;2022-08-30T13:39:37;4.38;;;1.38;;
24547;SDS011;12713;51.624;4.924;2022-08-30T13:42:06;4.10;;;1.83;;
24547;SDS011;12713;51.624;4.924;2022-08-30T13:44:32;2.50;;;1.48;;
24547;SDS011;12713;51.624;4.924;2022-08-30T13:46:58;4.97;;;1.75;;
24547;SDS011;12713;51.624;4.924;2022-08-30T13:49:26;7.15;;;1.80;;
24547;SDS011;12713;51.624;4.924;2022-08-30T13:51:52;6.18;;;1.95;;
24547;SDS011;12713;51.624;4.924;2022-08-30T13:54:19;6.32;;;1.80;;
24547;SDS011;12713;51.624;4.924;2022-08-30T13:56:51;6.32;;;1.70;;
24547;SDS011;12713;51.624;4.924;2022-08-30T13:59:17;3.70;;;1.85;;
24547;SDS011;12713;51.624;4.924;2022-08-30T14:01:44;5.28;;;2.15;;
24547;SDS011;12713;51.624;4.924;2022-08-30T14:04:10;4.95;;;2.17;;
24547;SDS011;12713;51.624;4.924;2022-08-30T14:06:37;9.23;;;2.08;;
24547;SDS011;12713;51.624;4.924;2022-08-30T14:09:03;6.35;;;1.90;;
24547;SDS011;12713;51.624;4.924;2022-08-30T14:11:31;7.10;;;1.75;;
24547;SDS011;12713;51.624;4.924;2022-08-30T14:13:57;5.15;;;1.90;;
24547;SDS011;12713;51.624;4.924;2022-08-30T14:16:23;3.83;;;1.80;;
24547;SDS011;12713;51.624;4.924;2022-08-30T14:18:49;4.60;;;1.77;;
24547;SDS011;12713;51.624;4.924;2022-08-30T14:21:15;4.93;;;1.80;;
24547;SDS011;12713;51.624;4.924;2022-08-30T14:23:41;2.40;;;1.48;;
24547;SDS011;12713;51.624;4.924;2022-08-30T14:26:18;4.07;;;1.60;;
24547;SDS011;12713;51.624;4.924;2022-08-30T14:28:45;5.97;;;2.20;;
24547;SDS011;12713;51.624;4.924;2022-08-30T14:31:11;5.50;;;1.55;;
24547;SDS011;12713;51.624;4.924;2022-08-30T14:33:38;4.85;;;2.05;;
24547;SDS011;12713;51.624;4.924;2022-08-30T14:36:04;2.58;;;1.60;;
24547;SDS011;12713;51.624;4.924;2022-08-30T14:38:30;8.73;;;2.05;;
24547;SDS011;12713;51.624;4.924;2022-08-30T14:40:56;5.57;;;1.88;;
24547;SDS011;12713;51.624;4.924;2022-08-30T14:43:23;5.80;;;2.25;;
24547;SDS011;12713;51.624;4.924;2022-08-30T14:45:49;7.05;;;2.00;;
24547;SDS011;12713;51.624;4.924;2022-08-30T14:48:15;4.22;;;1.58;;
24547;SDS011;12713;51.624;4.924;2022-08-30T14:50:41;4.28;;;1.88;;
24547;SDS011;12713;51.624;4.924;2022-08-30T14:53:07;3.05;;;1.50;;
24547;SDS011;12713;51.624;4.924;2022-08-30T14:55:34;4.95;;;2.00;;
24547;SDS011;12713;51.624;4.924;2022-08-30T14:58:00;6.53;;;1.58;;
24547;SDS011;12713;51.624;4.924;2022-08-30T15:00:30;3.97;;;1.70;;
24547;SDS011;12713;51.624;4.924;2022-08-30T15:02:59;5.38;;;2.22;;
24547;SDS011;12713;51.624;4.924;2022-08-30T15:05:25;6.13;;;1.77;;
24547;SDS011;12713;51.624;4.924;2022-08-30T15:07:51;2.78;;;1.67;;
24547;SDS011;12713;51.624;4.924;2022-08-30T15:10:18;3.22;;;1.48;;
24547;SDS011;12713;51.624;4.924;2022-08-30T15:12:48;4.15;;;1.60;;
24547;SDS011;12713;51.624;4.924;2022-08-30T15:15:15;8.80;;;2.00;;
24547;SDS011;12713;51.624;4.924;2022-08-30T15:17:43;8.05;;;1.85;;
24547;SDS011;12713;51.624;4.924;2022-08-30T15:20:09;4.22;;;1.58;;
24547;SDS011;12713;51.624;4.924;2022-08-30T15:22:36;8.95;;;2.05;;
24547;SDS011;12713;51.624;4.924;2022-08-30T15:25:03;4.00;;;1.60;;
24547;SDS011;12713;51.624;4.924;2022-08-30T15:27:29;5.82;;;1.48;;
24547;SDS011;12713;51.624;4.924;2022-08-30T15:29:55;4.68;;;1.63;;
24547;SDS011;12713;51.624;4.924;2022-08-30T15:32:21;2.85;;;1.80;;
24547;SDS011;12713;51.624;4.924;2022-08-30T15:34:47;8.13;;;1.75;;
24547;SDS011;12713;51.624;4.924;2022-08-30T15:37:13;4.97;;;2.05;;
24547;SDS011;12713;51.624;4.924;2022-08-30T15:39:46;4.75;;;1.75;;
24547;SDS011;12713;51.624;4.924;2022-08-30T15:42:12;4.63;;;2.15;;
24547;SDS011;12713;51.624;4.924;2022-08-30T15:44:38;7.47;;;1.95;;
24547;SDS011;12713;51.624;4.924;2022-08-30T15:47:04;4.30;;;1.80;;
24547;SDS011;12713;51.624;4.924;2022-08-30T15:49:30;5.00;;;1.90;;
24547;SDS011;12713;51.624;4.924;2022-08-30T15:52:03;3.78;;;1.80;;
24547;SDS011;12713;51.624;4.924;2022-08-30T15:54:30;2.97;;;1.48;;
24547;SDS011;12713;51.624;4.924;2022-08-30T15:56:56;3.60;;;1.65;;
24547;SDS011;12713;51.624;4.924;2022-08-30T15:59:28;5.03;;;1.50;;
24547;SDS011;12713;51.624;4.924;2022-08-30T16:01:55;4.47;;;1.80;;
24547;SDS011;12713;51.624;4.924;2022-08-30T16:04:21;3.65;;;1.50;;
24547;SDS011;12713;51.624;4.924;2022-08-30T16:06:47;4.03;;;1.65;;
24547;SDS011;12713;51.624;4.924;2022-08-30T16:09:14;4.20;;;1.63;;
24547;SDS011;12713;51.624;4.924;2022-08-30T16:11:40;7.32;;;2.03;;
24547;SDS011;12713;51.624;4.924;2022-08-30T16:14:06;2.55;;;1.48;;
24547;SDS011;12713;51.624;4.924;2022-08-30T16:16:32;4.40;;;1.73;;
24547;SDS011;12713;51.624;4.924;2022-08-30T16:19:01;4.78;;;1.73;;
24547;SDS011;12713;51.624;4.924;2022-08-30T16:21:31;4.13;;;2.30;;
24547;SDS011;12713;51.624;4.924;2022-08-30T16:23:58;5.32;;;2.08;;